Time;durP1;ratioP1;P1;durP2;ratioP2;P2;SDS_P1;SDS_P2;PMS_P1;PMS_P2;Temp;Humidity;BMP_temperature;BMP_pressure;BME280_temperature;BME280_humidity;BME280_pressure;Samples;Min_cycle;Max_cycle;Signal;HPM_P1;HPM_P2
2022/10/15 00:00:00;;;;;;;7.20;6.32;;;15.40;99.90;;;;;;4134039;28;20041;-70
2022/10/15 00:02:02;;;;;;;7.65;6.20;;;15.40;99.90;;;;;;4135284;28;20026;-69
2022/10/15 00:04:03;;;;;;;11.27;7.13;;;15.30;99.90;;;;;;4135308;28;20038;-70
2022/10/15 00:06:13;;;;;;;8.50;6.88;;;15.40;99.90;;;;;;4136165;28;20038;-70
2022/10/15 00:08:14;;;;;;;8.00;6.45;;;15.30;99.90;;;;;;4134456;28;20130;-69
2022/10/15 00:10:15;;;;;;;9.35;6.75;;;15.30;99.90;;;;;;4137219;28;20057;-69
2022/10/15 00:12:16;;;;;;;8.35;6.43;;;15.30;99.90;;;;;;4142230;28;20391;-69
2022/10/15 00:14:17;;;;;;;7.15;5.43;;;15.30;99.90;;;;;;4133003;28;20109;-69
2022/10/15 00:16:20;;;;;;;8.07;6.32;;;15.30;99.90;;;;;;4138550;28;20028;-69
2022/10/15 00:18:21;;;;;;;7.38;5.72;;;15.30;99.90;;;;;;4136628;28;20038;-69
2022/10/15 00:20:22;;;;;;;8.05;6.35;;;15.30;99.90;;;;;;4137317;28;20395;-69
2022/10/15 00:22:22;;;;;;;8.63;6.82;;;15.30;99.90;;;;;;4134974;28;20497;-69
2022/10/15 00:24:23;;;;;;;8.40;6.38;;;15.30;99.90;;;;;;4134517;28;20026;-69
2022/10/15 00:26:26;;;;;;;7.50;6.25;;;15.30;99.90;;;;;;4126685;28;20077;-69
2022/10/15 00:28:26;;;;;;;8.02;6.57;;;15.30;99.90;;;;;;4157145;28;20029;-71
2022/10/15 00:30:27;;;;;;;7.28;6.30;;;15.30;99.90;;;;;;4135320;28;20034;-70
2022/10/15 00:32:29;;;;;;;8.07;6.32;;;15.30;99.90;;;;;;4159463;28;20025;-69
2022/10/15 00:34:29;;;;;;;6.80;5.40;;;15.30;99.90;;;;;;4139723;28;20527;-70
2022/10/15 00:36:32;;;;;;;6.80;5.43;;;15.30;99.90;;;;;;4139824;28;20080;-69
2022/10/15 00:38:34;;;;;;;6.35;5.57;;;15.30;99.90;;;;;;4136012;28;20503;-69
2022/10/15 00:40:35;;;;;;;9.00;5.47;;;15.30;99.90;;;;;;4135221;28;20042;-70
2022/10/15 00:42:35;;;;;;;5.55;4.88;;;15.20;99.90;;;;;;4134888;28;20384;-69
2022/10/15 00:44:36;;;;;;;5.90;5.30;;;15.20;99.90;;;;;;4139741;28;20114;-70
2022/10/15 00:46:40;;;;;;;6.53;5.30;;;15.20;99.90;;;;;;4158545;28;20148;-69
2022/10/15 00:48:42;;;;;;;5.82;4.95;;;15.20;99.90;;;;;;4142394;28;20437;-69
2022/10/15 00:50:42;;;;;;;7.03;5.28;;;15.20;99.90;;;;;;4138659;28;20034;-69
2022/10/15 00:52:49;;;;;;;7.45;5.35;;;15.20;99.90;;;;;;4142889;28;20030;-69
2022/10/15 00:54:55;;;;;;;6.18;5.28;;;15.20;99.90;;;;;;4135346;28;20114;-69
2022/10/15 00:56:56;;;;;;;7.35;5.32;;;15.20;99.90;;;;;;4141369;28;20053;-69
2022/10/15 00:58:57;;;;;;;7.47;5.07;;;15.20;99.90;;;;;;4138753;28;20037;-70
2022/10/15 01:00:58;;;;;;;7.80;5.05;;;15.10;99.90;;;;;;4141916;28;20368;-69
2022/10/15 01:02:59;;;;;;;6.63;5.43;;;15.10;99.90;;;;;;4135620;28;20121;-70
2022/10/15 01:04:59;;;;;;;7.78;6.15;;;15.10;99.90;;;;;;4135216;28;20155;-70
2022/10/15 01:07:00;;;;;;;8.95;6.30;;;15.10;99.90;;;;;;4132593;28;20100;-69
2022/10/15 01:09:01;;;;;;;9.20;6.65;;;15.10;99.90;;;;;;4136593;28;20054;-69
2022/10/15 01:11:17;;;;;;;8.65;6.10;;;15.10;99.90;;;;;;4135902;28;20034;-70
2022/10/15 01:13:52;;;;;;;9.20;5.75;;;15.00;99.90;;;;;;4143938;28;20041;-69
2022/10/15 01:16:04;;;;;;;7.55;5.65;;;15.00;99.90;;;;;;4162009;28;20037;-70
2022/10/15 01:18:30;;;;;;;6.53;5.25;;;15.00;99.90;;;;;;4157826;28;20087;-70
2022/10/15 01:20:59;;;;;;;7.38;6.03;;;15.00;99.90;;;;;;4161864;28;20037;-69
2022/10/15 01:23:19;;;;;;;6.82;5.72;;;14.90;99.90;;;;;;4132990;28;20613;-70
2022/10/15 01:25:25;;;;;;;7.55;6.28;;;14.90;99.90;;;;;;4153933;28;20079;-69
2022/10/15 01:27:41;;;;;;;8.80;6.53;;;14.90;99.90;;;;;;4141832;28;20060;-69
2022/10/15 01:29:57;;;;;;;9.32;6.68;;;14.80;99.90;;;;;;4137194;28;20031;-69
2022/10/15 01:32:02;;;;;;;8.50;6.95;;;14.80;99.90;;;;;;4139267;28;20395;-69
2022/10/15 01:34:24;;;;;;;8.07;6.40;;;14.80;99.90;;;;;;4154086;28;20036;-69
2022/10/15 01:36:39;;;;;;;6.05;5.43;;;14.80;99.90;;;;;;4137180;28;20117;-70
2022/10/15 01:38:54;;;;;;;9.30;6.32;;;14.80;99.90;;;;;;4139656;28;20514;-69
2022/10/15 01:41:05;;;;;;;8.95;6.57;;;14.80;99.90;;;;;;4157434;28;20029;-70
2022/10/15 01:43:11;;;;;;;7.90;5.95;;;14.70;99.90;;;;;;4138237;28;20121;-69
2022/10/15 01:45:18;;;;;;;6.35;5.05;;;14.80;99.90;;;;;;4138738;28;20044;-69
2022/10/15 01:47:41;;;;;;;6.00;5.40;;;14.70;99.90;;;;;;4159616;28;20100;-69
2022/10/15 01:49:45;;;;;;;7.07;5.88;;;14.80;99.90;;;;;;4160693;28;20075;-69
2022/10/15 01:51:49;;;;;;;8.18;5.82;;;14.70;99.90;;;;;;4154792;28;20068;-69
2022/10/15 01:53:50;;;;;;;6.60;5.55;;;14.70;99.90;;;;;;4151681;28;20060;-70
2022/10/15 01:55:54;;;;;;;7.13;6.05;;;14.70;99.90;;;;;;4166558;28;20441;-69
2022/10/15 01:57:57;;;;;;;8.50;5.78;;;14.70;99.90;;;;;;4164756;28;20029;-69
2022/10/15 01:59:58;;;;;;;;;;;14.70;99.90;;;;;;4152236;28;20502;-69
2022/10/15 02:01:58;;;;;;;6.80;5.90;;;14.70;99.90;;;;;;4165198;28;19912;-70
2022/10/15 02:03:59;;;;;;;7.72;6.20;;;14.70;99.90;;;;;;4151428;28;20042;-69
2022/10/15 02:06:08;;;;;;;6.60;5.85;;;14.70;99.90;;;;;;4162829;28;20040;-69
2022/10/15 02:08:38;;;;;;;7.50;6.70;;;14.70;99.90;;;;;;4147060;28;20049;-69
2022/10/15 02:10:55;;;;;;;10.02;7.35;;;14.70;99.90;;;;;;4124001;28;20043;-69
2022/10/15 02:13:23;;;;;;;8.90;7.25;;;14.80;99.90;;;;;;4113704;28;20436;-70
2022/10/15 02:15:48;;;;;;;8.07;7.22;;;14.80;99.90;;;;;;4117254;28;20487;-69
2022/10/15 02:18:04;;;;;;;9.52;6.95;;;14.80;99.90;;;;;;4117955;28;20045;-69
2022/10/15 02:20:29;;;;;;;8.43;6.57;;;14.80;99.90;;;;;;4135733;28;20041;-69
2022/10/15 02:22:42;;;;;;;7.75;6.75;;;14.80;99.90;;;;;;4138974;28;20033;-69
2022/10/15 02:24:51;;;;;;;8.10;6.75;;;14.80;99.90;;;;;;4116786;28;20431;-69
2022/10/15 02:26:55;;;;;;;8.07;7.07;;;14.80;99.90;;;;;;4118513;28;20081;-70
2022/10/15 02:28:58;;;;;;;9.27;7.57;;;14.80;99.90;;;;;;4123272;28;20053;-69
2022/10/15 02:30:59;;;;;;;8.48;7.07;;;14.80;99.90;;;;;;4122196;28;20045;-70
2022/10/15 02:33:00;;;;;;;9.90;7.88;;;14.80;99.90;;;;;;4134717;28;20100;-72
2022/10/15 02:35:01;;;;;;;12.20;8.90;;;14.90;99.90;;;;;;4117447;28;20081;-72
2022/10/15 02:37:04;;;;;;;9.30;7.93;;;14.90;99.90;;;;;;4135383;28;20038;-72
2022/10/15 02:39:08;;;;;;;10.88;8.85;;;14.80;99.90;;;;;;4119615;28;20590;-71
2022/10/15 02:41:10;;;;;;;10.05;8.57;;;14.90;99.90;;;;;;4136396;28;20057;-66
2022/10/15 02:43:14;;;;;;;10.82;9.02;;;14.90;99.90;;;;;;4128255;28;20118;-67
2022/10/15 02:45:14;;;;;;;11.48;9.02;;;14.80;99.90;;;;;;4121019;28;20052;-68
2022/10/15 02:47:15;;;;;;;13.82;8.98;;;14.80;99.90;;;;;;4118490;28;20031;-66
2022/10/15 02:49:16;;;;;;;10.90;9.10;;;14.80;99.90;;;;;;4119983;28;20130;-66
2022/10/15 02:51:16;;;;;;;9.93;8.18;;;14.80;99.90;;;;;;4132266;28;20514;-67
2022/10/15 02:53:17;;;;;;;10.90;8.90;;;14.80;99.90;;;;;;4119724;28;20046;-67
2022/10/15 02:55:17;;;;;;;11.40;9.07;;;14.80;99.90;;;;;;4122843;28;20061;-66
2022/10/15 02:57:18;;;;;;;11.02;9.13;;;14.80;99.90;;;;;;4118961;28;20117;-67
2022/10/15 02:59:19;;;;;;;9.32;8.05;;;14.80;99.90;;;;;;4139175;28;20084;-66
2022/10/15 03:01:19;;;;;;;10.50;8.50;;;14.80;99.90;;;;;;4117765;28;20053;-67
2022/10/15 03:03:20;;;;;;;12.43;9.32;;;14.80;99.90;;;;;;4121891;28;20041;-67
2022/10/15 03:05:21;;;;;;;11.70;9.25;;;14.80;99.90;;;;;;4116515;28;20098;-67
2022/10/15 03:07:21;;;;;;;13.98;9.55;;;14.80;99.90;;;;;;4132796;28;20110;-67
2022/10/15 03:09:22;;;;;;;14.65;9.25;;;14.70;99.90;;;;;;4119329;28;20081;-67
2022/10/15 03:11:22;;;;;;;11.93;10.18;;;14.70;99.90;;;;;;4121680;28;20038;-66
2022/10/15 03:13:23;;;;;;;14.55;10.85;;;14.70;99.90;;;;;;4118489;28;20408;-67
2022/10/15 03:15:23;;;;;;;12.07;9.63;;;14.70;99.90;;;;;;4123162;28;20104;-67
2022/10/15 03:17:24;;;;;;;12.77;10.00;;;14.70;99.90;;;;;;4121224;28;20026;-67
2022/10/15 03:19:25;;;;;;;15.07;11.10;;;14.70;99.90;;;;;;4125093;28;20041;-67
2022/10/15 03:21:29;;;;;;;12.90;10.98;;;14.70;99.90;;;;;;4121124;28;20109;-66
2022/10/15 03:23:30;;;;;;;13.52;10.18;;;14.70;99.90;;;;;;4122282;28;20404;-67
2022/10/15 03:25:30;;;;;;;13.80;10.43;;;14.60;99.90;;;;;;4120834;28;20113;-67
2022/10/15 03:27:31;;;;;;;14.70;9.82;;;14.60;99.90;;;;;;4125815;28;20033;-67
2022/10/15 03:29:31;;;;;;;12.82;10.10;;;14.70;99.90;;;;;;4123955;28;20045;-67
2022/10/15 03:31:32;;;;;;;10.70;9.05;;;14.70;99.90;;;;;;4123754;28;20077;-66
2022/10/15 03:33:33;;;;;;;12.13;10.02;;;14.60;99.90;;;;;;4126048;28;20033;-67
2022/10/15 03:35:33;;;;;;;13.07;10.30;;;14.70;99.90;;;;;;4121047;28;24569;-67
2022/10/15 03:37:34;;;;;;;13.07;9.88;;;14.70;99.90;;;;;;4124489;28;20101;-68
2022/10/15 03:39:34;;;;;;;12.00;9.63;;;14.70;99.90;;;;;;4134303;28;20038;-67
2022/10/15 03:41:35;;;;;;;11.27;9.52;;;14.70;99.90;;;;;;4117163;28;20034;-67
2022/10/15 03:43:35;;;;;;;10.00;8.73;;;14.70;99.90;;;;;;4134103;28;20032;-68
2022/10/15 03:45:36;;;;;;;10.10;8.82;;;14.70;99.90;;;;;;4121027;28;20039;-68
2022/10/15 03:47:37;;;;;;;10.07;8.57;;;14.70;99.90;;;;;;4121877;28;20046;-67
2022/10/15 03:49:37;;;;;;;9.55;7.95;;;14.70;99.90;;;;;;4119330;28;20046;-67
2022/10/15 03:51:38;;;;;;;10.68;8.52;;;14.70;99.90;;;;;;4120380;28;20150;-67
2022/10/15 03:53:38;;;;;;;10.73;8.98;;;14.70;99.90;;;;;;4121433;28;20064;-67
2022/10/15 03:55:39;;;;;;;10.00;8.75;;;14.70;99.90;;;;;;4117425;28;20536;-67
2022/10/15 03:57:41;;;;;;;12.48;8.45;;;14.70;99.90;;;;;;4134849;28;20472;-66
2022/10/15 03:59:41;;;;;;;10.32;8.77;;;14.70;99.90;;;;;;4117653;28;20042;-67
2022/10/15 04:01:43;;;;;;;11.68;9.18;;;14.70;99.90;;;;;;4114200;28;20392;-67
2022/10/15 04:03:44;;;;;;;9.65;8.48;;;14.70;99.90;;;;;;4117854;28;20039;-67
2022/10/15 04:05:52;;;;;;;10.25;8.52;;;14.70;99.90;;;;;;4119968;28;20041;-67
2022/10/15 04:07:52;;;;;;;11.35;9.18;;;14.80;99.90;;;;;;4122847;28;20030;-66
2022/10/15 04:09:53;;;;;;;10.93;9.00;;;14.70;99.90;;;;;;4119704;28;20076;-67
2022/10/15 04:11:54;;;;;;;10.88;8.77;;;14.70;99.90;;;;;;4123329;28;20034;-67
2022/10/15 04:13:54;;;;;;;14.02;10.60;;;14.70;99.90;;;;;;4123240;28;20026;-66
2022/10/15 04:15:55;;;;;;;11.75;9.57;;;14.80;99.90;;;;;;4129816;28;20030;-66
2022/10/15 04:17:55;;;;;;;13.68;10.48;;;14.70;99.90;;;;;;4110190;28;20082;-67
2022/10/15 04:19:56;;;;;;;11.85;9.43;;;14.70;99.90;;;;;;4117270;28;20106;-67
2022/10/15 04:21:57;;;;;;;12.07;9.48;;;14.70;99.90;;;;;;4117666;28;20495;-67
2022/10/15 04:23:57;;;;;;;11.77;9.40;;;14.70;99.90;;;;;;4121755;28;20034;-67
2022/10/15 04:26:00;;;;;;;13.65;10.40;;;14.70;99.90;;;;;;4139560;28;20040;-67
2022/10/15 04:28:00;;;;;;;12.13;9.63;;;14.60;99.90;;;;;;4119924;28;20035;-67
2022/10/15 04:30:01;;;;;;;12.50;9.00;;;14.60;99.90;;;;;;4123395;28;20077;-69
2022/10/15 04:32:02;;;;;;;13.55;9.48;;;14.60;99.90;;;;;;4124653;28;20038;-67
2022/10/15 04:34:03;;;;;;;14.52;11.00;;;14.60;99.90;;;;;;4132189;28;20035;-68
2022/10/15 04:36:10;;;;;;;12.68;9.73;;;14.60;99.90;;;;;;4125754;28;20090;-67
2022/10/15 04:38:10;;;;;;;12.93;9.60;;;14.60;99.90;;;;;;4124643;28;20066;-67
2022/10/15 04:40:12;;;;;;;12.90;10.15;;;14.60;99.90;;;;;;4124871;28;20090;-67
2022/10/15 04:42:12;;;;;;;12.40;8.88;;;14.60;99.90;;;;;;4124987;28;20034;-67
2022/10/15 04:44:13;;;;;;;10.93;9.40;;;14.60;99.90;;;;;;4127072;28;20033;-68
2022/10/15 04:46:14;;;;;;;12.57;9.70;;;14.60;99.90;;;;;;4124986;28;20589;-67
2022/10/15 04:48:14;;;;;;;11.25;9.25;;;14.70;99.90;;;;;;4125591;28;20027;-67
2022/10/15 04:50:15;;;;;;;12.00;9.52;;;14.60;99.90;;;;;;4125806;28;20030;-70
2022/10/15 04:52:15;;;;;;;10.88;8.52;;;14.60;99.90;;;;;;4124972;28;20064;-68
2022/10/15 04:54:16;;;;;;;11.80;9.25;;;14.60;99.90;;;;;;4126952;28;20037;-67
2022/10/15 04:56:19;;;;;;;13.23;9.63;;;14.60;99.90;;;;;;4125277;28;20364;-67
2022/10/15 04:58:19;;;;;;;13.18;10.00;;;14.60;99.90;;;;;;4123614;28;20058;-67
2022/10/15 05:00:20;;;;;;;10.30;8.70;;;14.60;99.90;;;;;;4120882;28;20039;-67
2022/10/15 05:02:20;;;;;;;11.60;9.30;;;14.60;99.90;;;;;;4136644;28;20038;-67
2022/10/15 05:04:21;;;;;;;12.55;9.60;;;14.60;99.90;;;;;;4139254;28;20084;-66
2022/10/15 05:06:22;;;;;;;11.68;9.15;;;14.60;99.90;;;;;;4127522;28;20029;-66
2022/10/15 05:08:23;;;;;;;9.73;8.25;;;14.60;99.90;;;;;;4136551;28;20038;-67
2022/10/15 05:10:23;;;;;;;13.52;9.13;;;14.60;99.90;;;;;;4122851;28;20037;-67
2022/10/15 05:12:24;;;;;;;12.63;9.85;;;14.70;99.90;;;;;;4123105;28;20029;-67
2022/10/15 05:14:24;;;;;;;11.23;9.07;;;14.70;99.90;;;;;;4123203;28;20120;-67
2022/10/15 05:16:27;;;;;;;12.05;8.98;;;14.60;99.90;;;;;;4122410;28;20118;-67
2022/10/15 05:18:28;;;;;;;;;;;14.70;99.90;;;;;;4140768;28;20510;-67
2022/10/15 05:20:28;;;;;;;9.10;7.97;;;14.70;99.90;;;;;;4116838;28;19918;-67
2022/10/15 05:22:29;;;;;;;11.02;8.00;;;14.70;99.90;;;;;;4121629;28;20030;-67
2022/10/15 05:24:29;;;;;;;9.85;8.75;;;14.70;99.90;;;;;;4126165;28;20062;-67
2022/10/15 05:26:31;;;;;;;11.10;9.13;;;14.70;99.90;;;;;;4121466;28;20039;-67
2022/10/15 05:28:32;;;;;;;11.20;8.73;;;14.70;99.90;;;;;;4124025;28;20039;-67
2022/10/15 05:30:33;;;;;;;11.68;9.30;;;14.70;99.90;;;;;;4121731;28;20031;-67
2022/10/15 05:32:34;;;;;;;13.65;10.63;;;14.70;99.90;;;;;;4139069;28;20044;-68
2022/10/15 05:34:34;;;;;;;12.68;9.95;;;14.70;99.90;;;;;;4120723;28;20113;-67
2022/10/15 05:36:35;;;;;;;13.48;10.45;;;14.60;99.90;;;;;;4136785;28;20038;-67
2022/10/15 05:38:36;;;;;;;14.15;10.63;;;14.70;99.90;;;;;;4125810;28;20042;-67
2022/10/15 05:40:37;;;;;;;13.35;10.77;;;14.60;99.90;;;;;;4132271;28;20077;-68
2022/10/15 05:42:37;;;;;;;13.52;10.38;;;14.60;99.90;;;;;;4125111;28;20471;-67
2022/10/15 05:44:38;;;;;;;15.30;10.45;;;14.60;99.90;;;;;;4119758;28;20435;-67
2022/10/15 05:46:39;;;;;;;12.13;9.90;;;14.60;99.90;;;;;;4122474;28;20057;-67
2022/10/15 05:48:39;;;;;;;14.32;10.43;;;14.50;99.90;;;;;;4124319;28;20046;-67
2022/10/15 05:50:40;;;;;;;15.70;11.02;;;14.50;99.90;;;;;;4121254;28;20038;-66
2022/10/15 05:52:40;;;;;;;14.30;11.05;;;14.50;99.90;;;;;;4121559;28;20543;-68
2022/10/15 05:54:41;;;;;;;13.10;10.85;;;14.50;99.90;;;;;;4123434;28;20420;-67
2022/10/15 05:56:41;;;;;;;15.55;11.57;;;14.50;99.90;;;;;;4123005;28;20507;-67
2022/10/15 05:58:43;;;;;;;13.93;11.02;;;14.50;99.90;;;;;;4124896;28;20459;-67
2022/10/15 06:00:44;;;;;;;15.10;11.25;;;14.40;99.90;;;;;;4118074;28;20074;-67
2022/10/15 06:02:45;;;;;;;15.05;11.38;;;14.40;99.90;;;;;;4125809;28;20031;-69
2022/10/15 06:04:47;;;;;;;17.83;12.07;;;14.40;99.90;;;;;;4124169;28;20026;-68
2022/10/15 06:06:48;;;;;;;20.23;12.35;;;14.40;99.90;;;;;;4124400;28;20262;-67
2022/10/15 06:08:49;;;;;;;16.38;12.02;;;14.30;99.90;;;;;;4125320;28;22160;-67
2022/10/15 06:10:50;;;;;;;15.32;11.70;;;14.30;99.90;;;;;;4119601;28;20046;-67
2022/10/15 06:12:50;;;;;;;16.42;11.60;;;14.20;99.90;;;;;;4125953;28;20081;-67
2022/10/15 06:14:51;;;;;;;16.10;12.18;;;14.30;99.90;;;;;;4127327;28;20027;-67
2022/10/15 06:16:53;;;;;;;16.08;12.35;;;14.20;99.90;;;;;;4125374;28;20038;-66
2022/10/15 06:18:54;;;;;;;16.30;12.30;;;14.20;99.90;;;;;;4141622;28;20041;-67
2022/10/15 06:20:54;;;;;;;14.95;11.90;;;14.30;99.90;;;;;;4123546;28;20064;-67
2022/10/15 06:22:59;;;;;;;16.77;12.45;;;14.30;99.90;;;;;;4138536;28;20042;-67
2022/10/15 06:24:59;;;;;;;15.35;11.57;;;14.30;99.90;;;;;;4124335;28;20066;-67
2022/10/15 06:27:00;;;;;;;16.75;12.50;;;14.30;99.90;;;;;;4137072;28;20399;-67
2022/10/15 06:29:01;;;;;;;15.38;11.68;;;14.30;99.90;;;;;;4122085;28;20500;-67
2022/10/15 06:31:01;;;;;;;18.50;12.63;;;14.30;99.90;;;;;;4129646;28;20041;-67
2022/10/15 06:33:02;;;;;;;14.45;11.25;;;14.30;99.90;;;;;;4127506;28;20030;-67
2022/10/15 06:35:03;;;;;;;14.40;11.07;;;14.30;99.90;;;;;;4122643;28;20391;-67
2022/10/15 06:37:03;;;;;;;15.07;11.43;;;14.40;99.90;;;;;;4125228;28;20030;-67
2022/10/15 06:39:04;;;;;;;13.02;10.25;;;14.30;99.90;;;;;;4125063;28;20503;-66
2022/10/15 06:41:06;;;;;;;14.48;10.95;;;14.40;99.90;;;;;;4137408;28;20482;-66
2022/10/15 06:43:09;;;;;;;16.65;12.25;;;14.40;99.90;;;;;;4120953;28;20379;-67
2022/10/15 06:45:10;;;;;;;15.38;10.98;;;14.40;99.90;;;;;;4136521;28;20038;-68
2022/10/15 06:47:11;;;;;;;19.85;11.13;;;14.40;99.90;;;;;;4118568;28;20626;-69
2022/10/15 06:49:11;;;;;;;15.10;10.70;;;14.40;99.90;;;;;;4118868;28;20039;-68
2022/10/15 06:51:12;;;;;;;12.05;9.18;;;14.40;99.90;;;;;;4122475;28;20039;-66
2022/10/15 06:53:13;;;;;;;13.27;9.68;;;14.40;99.90;;;;;;4123966;28;20045;-66
2022/10/15 06:55:14;;;;;;;11.80;9.00;;;14.50;99.90;;;;;;4122437;28;20484;-66
2022/10/15 06:57:14;;;;;;;15.05;10.43;;;14.50;99.90;;;;;;4124590;28;20038;-67
2022/10/15 06:59:15;;;;;;;13.25;9.40;;;14.50;99.90;;;;;;4122785;28;20042;-66
2022/10/15 07:01:16;;;;;;;14.00;9.90;;;14.50;99.90;;;;;;4121291;28;20080;-67
2022/10/15 07:03:16;;;;;;;13.40;9.63;;;14.50;99.90;;;;;;4141657;28;20617;-67
2022/10/15 07:05:18;;;;;;;13.15;9.63;;;14.50;99.90;;;;;;4123894;28;20113;-67
2022/10/15 07:07:18;;;;;;;12.48;9.30;;;14.60;99.90;;;;;;4136287;28;20038;-67
2022/10/15 07:09:19;;;;;;;16.23;9.57;;;14.60;99.90;;;;;;4120286;28;20044;-67
2022/10/15 07:11:20;;;;;;;14.15;10.07;;;14.70;99.90;;;;;;4118450;28;20393;-69
2022/10/15 07:13:20;;;;;;;13.88;10.60;;;14.60;99.90;;;;;;4121038;28;20038;-67
2022/10/15 07:15:21;;;;;;;15.70;10.50;;;14.70;99.90;;;;;;4123554;28;20117;-67
2022/10/15 07:17:22;;;;;;;12.85;9.70;;;14.70;99.90;;;;;;4123948;28;20030;-67
2022/10/15 07:19:23;;;;;;;15.80;10.77;;;14.70;99.90;;;;;;4130432;28;20031;-67
2022/10/15 07:21:23;;;;;;;13.05;9.75;;;14.80;99.90;;;;;;4125158;28;20042;-67
2022/10/15 07:23:24;;;;;;;15.85;11.27;;;14.80;99.90;;;;;;4129315;28;20117;-66
2022/10/15 07:25:25;;;;;;;15.38;11.15;;;14.80;99.90;;;;;;4128559;28;20046;-67
2022/10/15 07:27:26;;;;;;;16.80;11.60;;;14.90;99.90;;;;;;4124760;28;20534;-67
2022/10/15 07:29:27;;;;;;;16.88;11.88;;;14.90;99.90;;;;;;4119934;28;20035;-67
2022/10/15 07:31:27;;;;;;;18.63;12.45;;;14.90;99.90;;;;;;4119889;28;20518;-66
2022/10/15 07:33:28;;;;;;;20.23;12.38;;;15.00;99.90;;;;;;4116849;28;20146;-67
2022/10/15 07:35:28;;;;;;;16.52;12.18;;;15.00;99.90;;;;;;4123308;28;20100;-67
2022/10/15 07:37:30;;;;;;;16.10;12.60;;;15.00;99.90;;;;;;4135550;28;20084;-67
2022/10/15 07:39:31;;;;;;;19.33;12.43;;;15.10;99.90;;;;;;4123188;28;20034;-67
2022/10/15 07:41:31;;;;;;;16.33;12.60;;;15.20;99.90;;;;;;4122124;28;20042;-67
2022/10/15 07:43:33;;;;;;;15.85;11.00;;;15.30;99.90;;;;;;4128904;28;20399;-67
2022/10/15 07:45:34;;;;;;;18.65;11.60;;;15.50;99.90;;;;;;4122677;28;20185;-67
2022/10/15 07:47:35;;;;;;;15.45;11.57;;;15.70;99.90;;;;;;4125242;28;20038;-67
2022/10/15 07:49:36;;;;;;;17.02;12.68;;;15.80;99.90;;;;;;4123062;28;20038;-67
2022/10/15 07:51:36;;;;;;;19.60;13.43;;;15.90;99.90;;;;;;4124024;28;20113;-67
2022/10/15 07:53:37;;;;;;;17.83;13.40;;;16.00;99.90;;;;;;4139175;28;20034;-67
2022/10/15 07:55:38;;;;;;;19.42;12.52;;;16.10;99.90;;;;;;4154605;28;20079;-67
2022/10/15 07:57:38;;;;;;;17.63;12.32;;;16.10;99.90;;;;;;4140367;28;20029;-67
2022/10/15 07:59:40;;;;;;;17.10;11.82;;;16.20;99.90;;;;;;4139897;28;20515;-67
2022/10/15 08:01:40;;;;;;;19.35;13.45;;;16.20;99.90;;;;;;4139608;28;20030;-67
2022/10/15 08:03:41;;;;;;;18.35;12.75;;;16.10;99.90;;;;;;4139859;28;20133;-67
2022/10/15 08:05:41;;;;;;;19.38;13.30;;;16.10;99.90;;;;;;4141288;28;20050;-67
2022/10/15 08:07:42;;;;;;;16.17;11.40;;;16.20;99.90;;;;;;4138945;28;20041;-66
2022/10/15 08:09:43;;;;;;;14.13;10.65;;;16.20;99.90;;;;;;4135632;28;20169;-67
2022/10/15 08:11:43;;;;;;;17.25;11.45;;;16.30;99.90;;;;;;4112780;28;20393;-67
2022/10/15 08:13:45;;;;;;;15.90;11.77;;;16.40;99.90;;;;;;4121738;28;20490;-66
2022/10/15 08:15:46;;;;;;;17.70;13.20;;;16.40;99.90;;;;;;4123505;28;20038;-68
2022/10/15 08:17:47;;;;;;;16.88;11.95;;;16.50;99.90;;;;;;4120864;28;20447;-67
2022/10/15 08:19:47;;;;;;;15.77;10.98;;;16.60;99.90;;;;;;4119521;28;20399;-66
2022/10/15 08:21:48;;;;;;;19.67;12.27;;;16.70;99.90;;;;;;4136552;28;20030;-66
2022/10/15 08:23:49;;;;;;;15.95;11.93;;;16.80;99.90;;;;;;4121067;28;20038;-67
2022/10/15 08:25:49;;;;;;;15.80;11.60;;;16.80;99.90;;;;;;4118753;28;20046;-67
2022/10/15 08:27:52;;;;;;;14.48;10.15;;;16.80;99.90;;;;;;4114280;28;20034;-67
2022/10/15 08:29:53;;;;;;;15.43;10.75;;;16.90;99.90;;;;;;4136685;28;20058;-67
2022/10/15 08:31:53;;;;;;;14.50;10.00;;;16.80;99.90;;;;;;4123436;28;20045;-67
2022/10/15 08:33:54;;;;;;;15.20;10.63;;;16.80;99.90;;;;;;4136054;28;20037;-67
2022/10/15 08:35:54;;;;;;;15.43;10.18;;;16.80;99.90;;;;;;4119051;28;20047;-66
2022/10/15 08:37:55;;;;;;;13.63;10.20;;;16.70;99.90;;;;;;4121150;28;20050;-67
2022/10/15 08:39:56;;;;;;;12.80;10.00;;;16.70;99.90;;;;;;4118838;28;20404;-67
2022/10/15 08:42:01;;;;;;;14.43;10.13;;;16.60;99.90;;;;;;4123958;28;20068;-66
2022/10/15 08:44:02;;;;;;;13.15;10.15;;;16.50;99.90;;;;;;4121434;28;20470;-66
2022/10/15 08:46:09;;;;;;;12.98;9.35;;;16.50;99.90;;;;;;4139559;28;20038;-67
2022/10/15 08:48:13;;;;;;;12.93;9.80;;;16.50;99.90;;;;;;4126480;28;20034;-66
2022/10/15 08:50:23;;;;;;;13.05;9.65;;;16.50;99.90;;;;;;4123791;28;20039;-66
2022/10/15 08:52:44;;;;;;;14.35;9.95;;;16.50;99.90;;;;;;4118577;28;20062;-67
2022/10/15 08:54:45;;;;;;;13.20;9.07;;;16.50;99.90;;;;;;4125111;28;20432;-67
2022/10/15 08:56:51;;;;;;;11.48;8.93;;;16.50;99.90;;;;;;4134649;28;20038;-67
2022/10/15 08:59:30;;;;;;;10.55;8.57;;;16.60;99.90;;;;;;4125206;28;20038;-68
2022/10/15 09:01:45;;;;;;;14.18;8.77;;;16.60;99.90;;;;;;4107137;28;20114;-67
2022/10/15 09:04:06;;;;;;;9.90;7.10;;;16.60;99.90;;;;;;4126864;28;20624;-66
2022/10/15 09:06:23;;;;;;;9.30;7.78;;;16.70;99.90;;;;;;4138066;28;20038;-69
2022/10/15 09:08:31;;;;;;;9.60;7.40;;;16.80;99.90;;;;;;4135200;28;20446;-66
2022/10/15 09:10:58;;;;;;;9.68;6.97;;;16.80;99.90;;;;;;4123565;28;20435;-66
2022/10/15 09:13:04;;;;;;;9.93;6.07;;;16.80;99.90;;;;;;4126084;28;20061;-69
2022/10/15 09:15:11;;;;;;;7.47;6.03;;;16.90;99.90;;;;;;4124912;28;20600;-67
2022/10/15 09:17:21;;;;;;;7.53;5.80;;;16.90;99.90;;;;;;4126533;28;20026;-66
2022/10/15 09:19:24;;;;;;;7.03;4.95;;;17.00;99.90;;;;;;4139795;28;20034;-67
2022/10/15 09:21:26;;;;;;;9.45;5.45;;;17.20;99.90;;;;;;4125263;28;20038;-69
2022/10/15 09:23:31;;;;;;;5.30;4.60;;;17.20;99.90;;;;;;4127129;28;20500;-67
2022/10/15 09:25:35;;;;;;;6.47;4.57;;;17.30;99.90;;;;;;4125129;28;20034;-67
2022/10/15 09:27:38;;;;;;;6.07;4.70;;;17.40;99.90;;;;;;4141202;28;20034;-67
2022/10/15 09:29:42;;;;;;;;;;;17.40;99.90;;;;;;4122689;28;20034;-67
2022/10/15 09:31:54;;;;;;;4.25;3.58;;;17.40;99.90;;;;;;4124740;28;19921;-67
2022/10/15 09:34:13;;;;;;;4.20;3.17;;;17.40;99.90;;;;;;4126753;28;20058;-69
2022/10/15 09:36:38;;;;;;;3.83;2.83;;;17.40;99.90;;;;;;4123630;28;20043;-67
2022/10/15 09:39:15;;;;;;;3.35;2.70;;;17.30;99.90;;;;;;4123110;28;20038;-66
2022/10/15 09:41:31;;;;;;;4.88;2.92;;;17.30;99.90;;;;;;4115293;28;20113;-66
2022/10/15 09:43:37;;;;;;;3.63;2.50;;;17.30;99.90;;;;;;4134869;28;20415;-67
2022/10/15 09:45:38;;;;;;;2.97;2.35;;;17.30;99.90;;;;;;4161028;28;20120;-66
2022/10/15 09:47:40;;;;;;;2.78;2.00;;;17.20;99.90;;;;;;4146397;28;20498;-66
2022/10/15 09:49:41;;;;;;;;;;;17.20;99.90;;;;;;4118566;28;20026;-65
2022/10/15 09:52:03;;;;;;;3.55;2.53;;;17.20;99.90;;;;;;4147550;28;19920;-66
2022/10/15 09:54:21;;;;;;;2.53;1.77;;;17.10;99.90;;;;;;4136263;28;20042;-69
2022/10/15 09:56:27;;;;;;;2.83;2.08;;;17.10;99.90;;;;;;4160920;28;20111;-67
2022/10/15 09:58:36;;;;;;;1.80;1.58;;;17.10;99.90;;;;;;4136365;28;20035;-67
2022/10/15 10:00:57;;;;;;;2.38;1.58;;;17.10;99.90;;;;;;4126456;28;20408;-66
2022/10/15 10:03:06;;;;;;;1.42;1.33;;;17.00;99.90;;;;;;4121752;28;20570;-66
2022/10/15 10:05:30;;;;;;;2.38;1.60;;;17.00;99.90;;;;;;4125191;28;20434;-67
2022/10/15 10:07:37;;;;;;;2.28;1.70;;;16.90;99.90;;;;;;4126521;28;20039;-67
2022/10/15 10:09:53;;;;;;;2.42;1.70;;;16.90;99.90;;;;;;4124726;28;20042;-66
2022/10/15 10:11:57;;;;;;;2.75;1.70;;;16.90;99.90;;;;;;4134111;28;20064;-66
2022/10/15 10:14:02;;;;;;;1.85;1.48;;;16.90;99.90;;;;;;4121322;28;20469;-66
2022/10/15 10:16:09;;;;;;;1.48;1.20;;;16.80;99.90;;;;;;4135377;28;20454;-66
2022/10/15 10:18:24;;;;;;;1.58;1.23;;;16.80;99.90;;;;;;4126718;28;20377;-66
2022/10/15 10:20:33;;;;;;;1.65;1.20;;;16.80;99.90;;;;;;4116452;28;20034;-66
2022/10/15 10:22:54;;;;;;;1.67;1.23;;;16.80;99.90;;;;;;4130697;28;20030;-67
2022/10/15 10:24:55;;;;;;;2.72;1.55;;;16.80;99.90;;;;;;4122444;28;20595;-68
2022/10/15 10:26:57;;;;;;;2.60;1.48;;;16.80;99.90;;;;;;4135770;28;20069;-68
2022/10/15 10:28:58;;;;;;;1.60;1.20;;;16.70;99.90;;;;;;4119684;28;20026;-67
2022/10/15 10:31:03;;;;;;;3.65;1.70;;;16.70;99.90;;;;;;4122369;28;20038;-66
2022/10/15 10:33:04;;;;;;;3.50;1.45;;;16.70;99.90;;;;;;4121842;28;20058;-66
2022/10/15 10:35:14;;;;;;;1.58;1.27;;;16.70;99.90;;;;;;4118971;28;20117;-67
2022/10/15 10:37:15;;;;;;;1.70;1.38;;;16.70;99.90;;;;;;4103478;28;20097;-66